createdAt,value
2023-01-29T00:01:07.945Z,0.35
2023-01-29T00:04:09.505Z,0.30
2023-01-29T00:07:11.138Z,0.30
2023-01-29T00:10:12.749Z,0.30
2023-01-29T00:13:14.462Z,0.30
2023-01-29T00:16:16.065Z,0.30
2023-01-29T00:19:17.628Z,0.30
2023-01-29T00:22:19.234Z,0.22
2023-01-29T00:25:20.823Z,0.32
2023-01-29T00:28:22.445Z,0.20
2023-01-29T00:31:25.378Z,0.30
2023-01-29T00:34:27.044Z,0.30
2023-01-29T00:37:28.582Z,0.20
2023-01-29T00:40:50.088Z,0.30
2023-01-29T00:44:11.962Z,0.30
2023-01-29T00:47:33.606Z,0.30
2023-01-29T00:50:35.591Z,0.40
2023-01-29T00:53:37.195Z,0.40
2023-01-29T00:56:38.729Z,0.30
2023-01-29T00:59:40.228Z,0.30
2023-01-29T01:03:00.676Z,0.40
2023-01-29T01:06:07.014Z,0.30
2023-01-29T01:09:29.003Z,0.30
2023-01-29T01:12:31.779Z,0.22
2023-01-29T01:15:39.371Z,0.28
2023-01-29T01:18:41.423Z,0.30
2023-01-29T01:21:48.326Z,0.30
2023-01-29T01:24:50.532Z,0.30
2023-01-29T01:27:53.566Z,0.40
2023-01-29T01:30:55.242Z,0.30
2023-01-29T01:33:56.836Z,0.30
2023-01-29T01:36:58.442Z,0.30
2023-01-29T01:39:59.985Z,0.30
2023-01-29T01:43:01.799Z,0.30
2023-01-29T01:46:03.467Z,0.30
2023-01-29T01:49:19.656Z,0.20
2023-01-29T01:52:21.857Z,0.30
2023-01-29T01:55:26.531Z,0.35
2023-01-29T01:58:53.317Z,0.30
2023-01-29T02:01:54.896Z,0.25
2023-01-29T02:05:15.136Z,0.30
2023-01-29T02:08:43.523Z,0.20
2023-01-29T02:11:45.193Z,0.32
2023-01-29T02:14:47.205Z,0.30
2023-01-29T02:17:48.917Z,0.40
2023-01-29T02:21:29.257Z,0.38
2023-01-29T02:24:58.844Z,0.30
2023-01-29T02:28:05.566Z,0.30
2023-01-29T02:31:16.835Z,0.32
2023-01-29T02:34:28.627Z,0.30
2023-01-29T02:37:39.139Z,0.30
2023-01-29T02:40:56.097Z,0.40
2023-01-29T02:44:09.580Z,0.40
2023-01-29T02:47:19.767Z,0.30
2023-01-29T02:50:32.751Z,0.35
2023-01-29T02:53:44.542Z,0.40
2023-01-29T02:56:55.997Z,0.35
2023-01-29T03:00:03.404Z,0.40
2023-01-29T03:03:17.861Z,0.30
2023-01-29T03:06:32.891Z,0.40
2023-01-29T03:09:40.113Z,0.40
2023-01-29T03:12:44.221Z,0.30
2023-01-29T03:16:02.419Z,0.30
2023-01-29T03:19:07.219Z,0.30
2023-01-29T03:22:11.495Z,0.30
2023-01-29T03:25:34.085Z,0.30
2023-01-29T03:28:54.663Z,0.30
2023-01-29T03:32:09.516Z,0.30
2023-01-29T03:35:14.395Z,0.40
2023-01-29T03:38:16.619Z,0.20
2023-01-29T03:41:28.748Z,0.30
2023-01-29T03:44:37.228Z,0.43
2023-01-29T03:47:43.626Z,0.30
2023-01-29T03:50:56.761Z,0.38
2023-01-29T03:54:01.150Z,0.40
2023-01-29T03:57:17.730Z,0.30
2023-01-29T04:00:23.535Z,0.30
2023-01-29T04:03:33.921Z,0.30
2023-01-29T04:06:40.433Z,0.40
2023-01-29T04:10:06.746Z,0.30
2023-01-29T04:13:12.798Z,0.30
2023-01-29T04:16:20.706Z,0.52
2023-01-29T04:19:22.849Z,0.45
2023-01-29T04:22:31.854Z,0.40
2023-01-29T04:25:45.657Z,0.40
2023-01-29T04:29:08.273Z,0.28
2023-01-29T04:32:13.675Z,0.40
2023-01-29T04:35:15.515Z,0.40
2023-01-29T04:38:28.868Z,0.32
2023-01-29T04:41:54.090Z,0.30
2023-01-29T04:45:13.507Z,0.40
2023-01-29T04:48:17.809Z,0.40
2023-01-29T04:51:30.282Z,0.32
2023-01-29T04:55:01.621Z,0.40
2023-01-29T04:58:14.331Z,0.32
2023-01-29T05:01:18.442Z,0.43
2023-01-29T05:04:21.716Z,0.40
2023-01-29T05:07:24.409Z,0.47
2023-01-29T05:10:26.532Z,0.30
2023-01-29T05:13:31.533Z,0.40
2023-01-29T05:16:43.145Z,0.52
2023-01-29T05:19:45.921Z,0.43
2023-01-29T05:22:48.828Z,0.65
2023-01-29T05:25:52.120Z,0.35
2023-01-29T05:28:55.465Z,0.40
2023-01-29T05:31:58.112Z,0.38
2023-01-29T05:34:59.679Z,0.35
2023-01-29T05:38:01.228Z,0.50
2023-01-29T05:41:02.730Z,0.40
2023-01-29T05:44:04.450Z,0.50
2023-01-29T05:47:06.169Z,0.98
2023-01-29T05:50:08.517Z,0.45
2023-01-29T05:53:10.219Z,0.52
2023-01-29T05:56:11.782Z,0.43
2023-01-29T05:59:13.492Z,0.40
2023-01-29T06:02:15.067Z,0.43
2023-01-29T06:05:16.865Z,0.57
2023-01-29T06:08:18.467Z,0.40
2023-01-29T06:11:20.654Z,0.43
2023-01-29T06:14:22.291Z,0.57
2023-01-29T06:17:23.867Z,0.55
2023-01-29T06:20:25.433Z,0.55
2023-01-29T06:23:26.989Z,0.70
2023-01-29T06:26:28.529Z,0.60
2023-01-29T06:29:30.057Z,0.40
2023-01-29T06:32:32.066Z,0.30
2023-01-29T06:35:33.592Z,0.30
2023-01-29T06:38:35.253Z,0.40
2023-01-29T06:41:36.768Z,0.40
2023-01-29T06:44:38.343Z,0.32
2023-01-29T06:47:39.912Z,0.40
2023-01-29T06:50:41.457Z,0.40
2023-01-29T06:53:45.877Z,0.50
2023-01-29T06:56:47.933Z,0.35
2023-01-29T06:59:49.560Z,0.63
2023-01-29T07:02:51.254Z,0.52
2023-01-29T07:05:53.872Z,0.50
2023-01-29T07:08:55.828Z,1.02
2023-01-29T07:11:57.326Z,0.60
2023-01-29T07:14:58.897Z,0.50
2023-01-29T07:18:02.170Z,0.40
2023-01-29T07:21:07.460Z,0.40
2023-01-29T07:24:09.221Z,0.60
2023-01-29T07:27:10.814Z,1.05
2023-01-29T07:30:12.960Z,0.77
2023-01-29T07:33:14.674Z,0.73
2023-01-29T07:36:16.846Z,0.50
2023-01-29T07:39:18.412Z,0.55
2023-01-29T07:42:19.959Z,0.50
2023-01-29T07:45:21.516Z,0.60
2023-01-29T07:48:23.690Z,0.50
2023-01-29T07:51:25.404Z,0.43
2023-01-29T07:54:26.962Z,0.50
2023-01-29T07:57:28.623Z,0.57
2023-01-29T08:00:31.628Z,0.40
2023-01-29T08:03:33.442Z,0.43
2023-01-29T08:06:34.992Z,0.50
2023-01-29T08:09:36.989Z,0.60
2023-01-29T08:12:38.531Z,0.50
2023-01-29T08:15:44.141Z,0.60
2023-01-29T08:18:47.752Z,0.50
2023-01-29T08:21:49.380Z,0.40
2023-01-29T08:24:54.106Z,0.50
2023-01-29T08:28:02.113Z,0.90
2023-01-29T08:31:03.788Z,0.40
2023-01-29T08:34:05.375Z,0.40
2023-01-29T08:37:07.007Z,0.40
2023-01-29T08:40:10.928Z,0.40
2023-01-29T08:43:13.611Z,0.80
2023-01-29T08:46:15.312Z,0.60
2023-01-29T08:49:16.928Z,0.80
2023-01-29T08:52:18.483Z,0.57
2023-01-29T08:55:20.324Z,0.60
2023-01-29T08:58:21.940Z,0.40
2023-01-29T09:01:23.585Z,0.40
2023-01-29T09:04:25.380Z,0.38
2023-01-29T09:07:26.969Z,0.43
2023-01-29T09:10:28.537Z,0.50
2023-01-29T09:13:30.275Z,0.50
2023-01-29T09:16:31.909Z,0.43
2023-01-29T09:19:34.696Z,0.70
2023-01-29T09:22:36.893Z,0.50
2023-01-29T09:25:38.732Z,0.45
2023-01-29T09:28:40.549Z,0.40
2023-01-29T09:31:42.253Z,0.60
2023-01-29T09:34:43.936Z,0.50
2023-01-29T09:37:49.554Z,0.52
2023-01-29T09:41:04.584Z,0.52
2023-01-29T09:44:36.917Z,0.43
2023-01-29T09:47:38.482Z,0.70
2023-01-29T09:50:44.713Z,0.50
2023-01-29T09:54:08.484Z,0.52
2023-01-29T09:57:17.596Z,0.40
2023-01-29T10:00:29.877Z,0.52
2023-01-29T10:03:40.660Z,0.55
2023-01-29T10:06:48.066Z,0.50
2023-01-29T10:10:14.428Z,0.60
2023-01-29T10:13:35.392Z,0.80
2023-01-29T10:17:02.751Z,0.57
2023-01-29T10:20:40.351Z,0.57
2023-01-29T10:23:48.098Z,0.40
2023-01-29T10:26:52.225Z,0.60
2023-01-29T10:29:55.413Z,0.50
2023-01-29T10:33:02.391Z,0.60
2023-01-29T10:36:10.941Z,0.60
2023-01-29T10:39:20.752Z,0.50
2023-01-29T10:42:30.253Z,0.35
2023-01-29T10:46:00.782Z,0.40
2023-01-29T10:49:16.659Z,0.50
2023-01-29T10:52:47.098Z,0.50
2023-01-29T10:56:27.042Z,0.60
2023-01-29T11:00:19.887Z,0.50
2023-01-29T11:03:30.058Z,0.60
2023-01-29T11:06:32.872Z,0.43
2023-01-29T11:09:43.610Z,0.80
2023-01-29T11:12:46.344Z,0.43
2023-01-29T11:15:52.874Z,0.50
2023-01-29T11:18:57.794Z,0.50
2023-01-29T11:22:01.364Z,0.60
2023-01-29T11:25:19.623Z,0.90
2023-01-29T11:28:41.403Z,0.93
2023-01-29T11:31:43.100Z,0.65
2023-01-29T11:34:59.743Z,0.60
2023-01-29T11:38:09.461Z,0.50
2023-01-29T11:41:22.500Z,0.60
2023-01-29T11:44:51.414Z,0.70
2023-01-29T11:47:54.952Z,0.50
2023-01-29T11:51:04.878Z,0.50
2023-01-29T11:54:17.595Z,0.50
2023-01-29T11:57:34.246Z,0.40
2023-01-29T12:00:37.935Z,0.60
2023-01-29T12:03:48.427Z,0.70
2023-01-29T12:06:53.184Z,0.50
2023-01-29T12:09:57.924Z,0.80
2023-01-29T12:13:05.740Z,0.50
2023-01-29T12:16:07.274Z,0.70
2023-01-29T12:19:24.114Z,0.45
2023-01-29T12:23:23.126Z,0.50
2023-01-29T12:26:31.569Z,0.57
2023-01-29T12:29:55.054Z,0.55
2023-01-29T12:33:24.906Z,0.50
2023-01-29T12:36:41.669Z,0.40
2023-01-29T12:39:43.343Z,1.17
2023-01-29T12:42:50.001Z,1.00
2023-01-29T12:45:55.548Z,0.80
2023-01-29T12:49:01.929Z,0.85
2023-01-29T12:52:18.720Z,0.85
2023-01-29T12:55:29.934Z,0.47
2023-01-29T12:58:53.474Z,0.60
2023-01-29T13:01:58.515Z,0.50
2023-01-29T13:05:25.137Z,0.45
2023-01-29T13:08:35.651Z,0.70
2023-01-29T13:11:54.832Z,0.70
2023-01-29T13:15:02.821Z,0.43
2023-01-29T13:18:33.653Z,0.45
2023-01-29T13:21:39.643Z,0.30
2023-01-29T13:24:47.905Z,0.55
2023-01-29T13:27:51.832Z,0.60
2023-01-29T13:31:11.827Z,0.40
2023-01-29T13:34:20.776Z,0.60
2023-01-29T13:37:28.350Z,0.52
2023-01-29T13:40:34.627Z,0.57
2023-01-29T13:43:40.399Z,0.80
2023-01-29T13:46:42.413Z,0.70
2023-01-29T13:50:07.831Z,0.80
2023-01-29T13:53:33.264Z,0.60
2023-01-29T13:56:34.781Z,0.63
2023-01-29T13:59:55.418Z,1.50
2023-01-29T14:02:57.028Z,0.82
2023-01-29T14:06:00.605Z,0.50
2023-01-29T14:09:02.180Z,0.60
2023-01-29T14:12:05.601Z,0.60
2023-01-29T14:15:18.956Z,0.60
2023-01-29T14:18:25.696Z,0.98
2023-01-29T14:21:31.869Z,0.65
2023-01-29T14:24:34.134Z,0.60
2023-01-29T14:27:37.756Z,0.60
2023-01-29T14:30:41.134Z,0.50
2023-01-29T14:33:44.428Z,0.47
2023-01-29T14:36:50.442Z,0.50
2023-01-29T14:39:54.277Z,0.40
2023-01-29T14:43:20.128Z,0.30
2023-01-29T14:46:33.630Z,0.60
2023-01-29T14:49:55.523Z,0.60
2023-01-29T14:53:23.464Z,0.60
2023-01-29T14:56:27.929Z,0.50
2023-01-29T14:59:34.930Z,0.45
2023-01-29T15:02:44.495Z,0.55
2023-01-29T15:05:51.259Z,0.50
2023-01-29T15:09:03.824Z,0.80
2023-01-29T15:12:20.612Z,0.60
2023-01-29T15:15:37.638Z,0.65
2023-01-29T15:18:41.611Z,0.47
2023-01-29T15:22:13.991Z,0.60
2023-01-29T15:25:16.023Z,0.93
2023-01-29T15:28:17.955Z,0.55
2023-01-29T15:31:20.481Z,1.00
2023-01-29T15:34:22.471Z,0.60
2023-01-29T15:37:35.012Z,0.70
2023-01-29T15:40:36.607Z,0.70
2023-01-29T15:43:44.473Z,1.00
2023-01-29T15:46:54.960Z,1.00
2023-01-29T15:49:57.460Z,0.73
2023-01-29T15:53:03.762Z,1.60
2023-01-29T15:56:10.441Z,1.00
2023-01-29T15:59:22.228Z,2.13
2023-01-29T16:02:30.002Z,1.95
2023-01-29T16:05:33.192Z,1.48
2023-01-29T16:08:35.675Z,1.00
2023-01-29T16:11:37.766Z,0.90
2023-01-29T16:14:41.638Z,0.77
2023-01-29T16:17:45.649Z,1.02
2023-01-29T16:20:52.091Z,1.13
2023-01-29T16:24:03.160Z,0.80
2023-01-29T16:27:13.668Z,0.90
2023-01-29T16:30:17.504Z,0.77
2023-01-29T16:33:19.819Z,0.68
2023-01-29T16:36:26.687Z,0.60
2023-01-29T16:39:33.828Z,0.82
2023-01-29T16:42:36.026Z,0.80
2023-01-29T16:45:37.597Z,0.60
2023-01-29T16:48:39.395Z,0.73
2023-01-29T16:51:43.851Z,0.77
2023-01-29T16:54:45.453Z,0.82
2023-01-29T16:57:52.894Z,0.57
2023-01-29T17:01:08.525Z,0.60
2023-01-29T17:04:18.523Z,0.40
2023-01-29T17:07:24.005Z,0.40
2023-01-29T17:10:27.701Z,0.50
2023-01-29T17:13:42.689Z,0.60
2023-01-29T17:17:10.015Z,1.67
2023-01-29T17:20:14.253Z,0.80
2023-01-29T17:23:15.994Z,1.00
2023-01-29T17:26:18.339Z,1.08
2023-01-29T17:29:24.328Z,0.68
2023-01-29T17:32:43.568Z,0.90
2023-01-29T17:35:46.635Z,0.52
2023-01-29T17:38:48.225Z,2.20
2023-01-29T17:41:52.372Z,1.10
2023-01-29T17:44:53.987Z,1.00
2023-01-29T17:47:55.543Z,1.60
2023-01-29T17:51:00.771Z,1.35
2023-01-29T17:54:02.390Z,1.02
2023-01-29T17:57:04.040Z,0.85
2023-01-29T18:00:20.964Z,1.33
2023-01-29T18:03:23.033Z,0.98
2023-01-29T18:06:29.933Z,0.98
2023-01-29T18:09:31.665Z,0.93
2023-01-29T18:12:33.234Z,1.20
2023-01-29T18:15:34.857Z,0.93
2023-01-29T18:18:36.456Z,0.90
2023-01-29T18:21:38.080Z,1.23
2023-01-29T18:24:40.051Z,1.10
2023-01-29T18:27:41.793Z,1.48
2023-01-29T18:30:47.833Z,0.95
2023-01-29T18:33:49.516Z,3.70
2023-01-29T18:36:51.305Z,2.28
2023-01-29T18:39:53.856Z,1.85
2023-01-29T18:42:55.548Z,1.00
2023-01-29T18:46:00.400Z,1.00
2023-01-29T18:49:02.016Z,1.05
2023-01-29T18:52:03.615Z,2.92
2023-01-29T18:55:05.661Z,2.10
2023-01-29T18:58:25.219Z,2.13
2023-01-29T19:01:28.898Z,1.50
2023-01-29T19:04:30.565Z,1.95
2023-01-29T19:07:32.336Z,1.35
2023-01-29T19:10:34.149Z,0.90
2023-01-29T19:13:37.003Z,0.98
2023-01-29T19:16:38.582Z,1.20
2023-01-29T19:19:40.168Z,1.70
2023-01-29T19:22:42.271Z,1.15
2023-01-29T19:25:43.967Z,2.10
2023-01-29T19:28:45.915Z,1.80
2023-01-29T19:31:47.904Z,1.33
2023-01-29T19:34:49.556Z,2.10
2023-01-29T19:37:51.150Z,2.00
2023-01-29T19:40:53.255Z,1.05
2023-01-29T19:43:54.803Z,1.38
2023-01-29T19:46:56.452Z,1.50
2023-01-29T19:49:58.019Z,1.05
2023-01-29T19:52:59.739Z,1.60
2023-01-29T19:56:07.089Z,0.70
2023-01-29T19:59:08.718Z,0.93
2023-01-29T20:02:10.563Z,1.00
2023-01-29T20:05:13.101Z,0.73
2023-01-29T20:08:14.733Z,1.30
2023-01-29T20:11:18.907Z,1.60
2023-01-29T20:14:20.573Z,1.80
2023-01-29T20:17:22.199Z,1.10
2023-01-29T20:20:23.764Z,1.00
2023-01-29T20:23:37.717Z,0.90
2023-01-29T20:26:40.324Z,1.00
2023-01-29T20:29:43.641Z,0.93
2023-01-29T20:32:45.237Z,1.88
2023-01-29T20:35:57.137Z,1.63
2023-01-29T20:38:59.384Z,1.40
2023-01-29T20:42:00.980Z,1.08
2023-01-29T20:45:02.571Z,1.10
2023-01-29T20:48:04.351Z,1.10
2023-01-29T20:51:09.397Z,1.20
2023-01-29T20:54:12.767Z,0.90
2023-01-29T20:57:14.690Z,1.30
2023-01-29T21:00:16.938Z,1.20
2023-01-29T21:03:18.628Z,0.90
2023-01-29T21:06:20.257Z,0.90
2023-01-29T21:09:21.977Z,1.10
2023-01-29T21:12:23.611Z,1.20
2023-01-29T21:15:27.365Z,1.05
2023-01-29T21:18:29.280Z,0.95
2023-01-29T21:21:30.912Z,1.27
2023-01-29T21:24:32.540Z,1.38
2023-01-29T21:27:34.134Z,1.45
2023-01-29T21:30:35.726Z,1.00
2023-01-29T21:33:37.801Z,0.95
2023-01-29T21:36:39.407Z,0.95
2023-01-29T21:39:41.005Z,1.27
2023-01-29T21:43:00.939Z,2.30
2023-01-29T21:46:11.305Z,0.90
2023-01-29T21:49:12.979Z,1.23
2023-01-29T21:52:15.290Z,1.10
2023-01-29T21:55:17.057Z,1.00
2023-01-29T21:58:20.081Z,1.60
2023-01-29T22:01:36.928Z,0.90
2023-01-29T22:04:40.181Z,1.90
2023-01-29T22:07:41.733Z,1.00
2023-01-29T22:10:43.355Z,0.80
2023-01-29T22:13:45.153Z,0.90
2023-01-29T22:16:46.846Z,1.10
2023-01-29T22:19:48.880Z,1.02
2023-01-29T22:22:50.450Z,0.90
2023-01-29T22:25:52.015Z,0.75
2023-01-29T22:28:53.546Z,0.82
2023-01-29T22:31:56.607Z,0.70
2023-01-29T22:34:58.226Z,1.10
2023-01-29T22:38:00.023Z,0.80
2023-01-29T22:41:01.797Z,1.27
2023-01-29T22:44:03.813Z,1.02
2023-01-29T22:47:05.381Z,1.25
2023-01-29T22:50:07.848Z,1.25
2023-01-29T22:53:09.680Z,1.20
2023-01-29T22:56:14.631Z,1.10
2023-01-29T22:59:16.193Z,1.10
2023-01-29T23:02:17.740Z,0.82
2023-01-29T23:05:19.398Z,1.23
2023-01-29T23:08:20.941Z,1.40
2023-01-29T23:11:23.611Z,1.80
2023-01-29T23:14:25.294Z,0.85
2023-01-29T23:17:26.895Z,2.20
2023-01-29T23:20:28.534Z,1.52
2023-01-29T23:23:31.317Z,2.00
2023-01-29T23:26:53.788Z,1.05
2023-01-29T23:29:55.451Z,1.40
2023-01-29T23:32:57.010Z,1.00
2023-01-29T23:35:58.758Z,1.00
2023-01-29T23:39:00.402Z,1.17
2023-01-29T23:42:02.519Z,1.10
2023-01-29T23:45:04.408Z,0.80
2023-01-29T23:48:06.196Z,0.95
2023-01-29T23:51:07.756Z,1.05
2023-01-29T23:54:09.330Z,1.08
2023-01-29T23:57:10.902Z,0.90
